createdAt,value
2022-10-18T00:00:55.379Z,9.96
2022-10-18T00:03:57.667Z,9.98
2022-10-18T00:06:59.612Z,9.91
2022-10-18T00:10:01.846Z,9.86
2022-10-18T00:13:03.839Z,9.93
2022-10-18T00:16:09.935Z,9.88
2022-10-18T00:19:11.838Z,9.77
2022-10-18T00:22:14.042Z,9.70
2022-10-18T00:25:15.904Z,9.72
2022-10-18T00:28:18.142Z,9.83
2022-10-18T00:31:24.843Z,9.81
2022-10-18T00:34:27.111Z,9.77
2022-10-18T00:37:29.376Z,9.62
2022-10-18T00:40:31.589Z,9.54
2022-10-18T00:43:33.571Z,9.60
2022-10-18T00:46:37.009Z,9.60
2022-10-18T00:49:43.835Z,9.51
2022-10-18T00:52:48.773Z,9.62
2022-10-18T00:55:50.784Z,9.65
2022-10-18T00:58:53.554Z,9.58
2022-10-18T01:01:55.510Z,9.53
2022-10-18T01:04:57.741Z,9.61
2022-10-18T01:08:19.495Z,9.77
2022-10-18T01:11:33.808Z,9.61
2022-10-18T01:14:49.616Z,9.63
2022-10-18T01:18:09.463Z,9.63
2022-10-18T01:21:11.429Z,9.61
2022-10-18T01:24:32.449Z,9.57
2022-10-18T01:27:40.652Z,9.45
2022-10-18T01:30:55.342Z,9.46
2022-10-18T01:33:59.652Z,9.50
2022-10-18T01:37:03.400Z,9.54
2022-10-18T01:40:06.732Z,9.61
2022-10-18T01:43:10.385Z,9.54
2022-10-18T01:46:14.440Z,9.56
2022-10-18T01:49:16.749Z,9.58
2022-10-18T01:52:18.651Z,9.51
2022-10-18T01:55:25.622Z,9.63
2022-10-18T01:58:59.999Z,9.59
2022-10-18T02:02:18.264Z,9.58
2022-10-18T02:05:40.263Z,9.53
2022-10-18T02:08:59.185Z,9.54
2022-10-18T02:12:02.998Z,9.55
2022-10-18T02:15:06.241Z,9.54
2022-10-18T02:18:12.019Z,9.58
2022-10-18T02:21:15.990Z,9.55
2022-10-18T02:24:19.328Z,9.55
2022-10-18T02:27:21.653Z,9.57
2022-10-18T02:30:26.987Z,9.57
2022-10-18T02:33:43.437Z,9.57
2022-10-18T02:36:47.411Z,9.66
2022-10-18T02:39:50.822Z,9.65
2022-10-18T02:42:57.230Z,9.62
2022-10-18T02:45:59.161Z,9.57
2022-10-18T02:49:01.443Z,9.52
2022-10-18T02:52:03.485Z,9.67
2022-10-18T02:55:06.331Z,9.57
2022-10-18T02:58:08.241Z,9.58
2022-10-18T03:01:10.464Z,9.56
2022-10-18T03:04:12.399Z,9.58
2022-10-18T03:07:14.626Z,9.58
2022-10-18T03:10:16.591Z,9.57
2022-10-18T03:13:18.824Z,9.52
2022-10-18T03:16:20.800Z,9.51
2022-10-18T03:19:23.121Z,9.45
2022-10-18T03:22:25.474Z,9.41
2022-10-18T03:25:27.729Z,9.45
2022-10-18T03:28:29.793Z,9.42
2022-10-18T03:31:32.327Z,9.45
2022-10-18T03:34:34.297Z,9.62
2022-10-18T03:37:37.076Z,9.86
2022-10-18T03:40:38.992Z,9.66
2022-10-18T03:43:41.164Z,9.56
2022-10-18T03:46:43.063Z,9.55
2022-10-18T03:49:45.306Z,9.58
2022-10-18T03:52:47.348Z,9.47
2022-10-18T03:55:53.107Z,9.46
2022-10-18T03:58:55.046Z,9.45
2022-10-18T04:01:57.259Z,9.39
2022-10-18T04:04:59.599Z,9.31
2022-10-18T04:08:01.482Z,9.26
2022-10-18T04:11:08.368Z,9.23
2022-10-18T04:14:10.261Z,9.17
2022-10-18T04:17:12.466Z,9.25
2022-10-18T04:20:14.466Z,9.24
2022-10-18T04:23:16.630Z,9.26
2022-10-18T04:26:18.529Z,9.16
2022-10-18T04:29:20.747Z,9.17
2022-10-18T04:32:22.772Z,9.23
2022-10-18T04:35:26.034Z,9.17
2022-10-18T04:38:27.958Z,9.15
2022-10-18T04:41:30.202Z,9.07
2022-10-18T04:44:32.081Z,9.03
2022-10-18T04:47:34.505Z,8.99
2022-10-18T04:50:36.583Z,9.03
2022-10-18T04:53:48.674Z,9.13
2022-10-18T04:56:50.610Z,9.14
2022-10-18T04:59:52.788Z,9.06
2022-10-18T05:02:58.010Z,8.84
2022-10-18T05:06:03.030Z,8.72
2022-10-18T05:09:05.392Z,8.77
2022-10-18T05:12:31.460Z,8.74
2022-10-18T05:15:33.538Z,8.94
2022-10-18T05:18:35.746Z,8.72
2022-10-18T05:21:37.781Z,8.71
2022-10-18T05:24:40.025Z,8.72
2022-10-18T05:27:41.918Z,8.85
2022-10-18T05:30:44.194Z,8.85
2022-10-18T05:33:46.066Z,9.00
2022-10-18T05:36:49.828Z,8.99
2022-10-18T05:39:51.803Z,8.92
2022-10-18T05:42:53.966Z,8.81
2022-10-18T05:45:55.860Z,8.79
2022-10-18T05:48:58.120Z,8.93
2022-10-18T05:52:00.081Z,9.01
2022-10-18T05:55:02.768Z,9.29
2022-10-18T05:58:04.887Z,9.55
2022-10-18T06:01:07.402Z,9.74
2022-10-18T06:04:10.316Z,9.91
2022-10-18T06:07:12.244Z,9.96
2022-10-18T06:10:14.475Z,9.96
2022-10-18T06:13:16.344Z,10.06
2022-10-18T06:16:19.566Z,10.13
2022-10-18T06:19:21.546Z,10.25
2022-10-18T06:22:23.725Z,10.36
2022-10-18T06:25:25.625Z,10.50
2022-10-18T06:28:28.661Z,10.59
2022-10-18T06:31:30.731Z,10.76
2022-10-18T06:34:33.049Z,10.89
2022-10-18T06:37:35.695Z,10.97
2022-10-18T06:40:38.257Z,11.12
2022-10-18T06:43:40.600Z,11.37
2022-10-18T06:46:43.724Z,11.47
2022-10-18T06:49:45.620Z,11.59
2022-10-18T06:52:48.909Z,11.76
2022-10-18T06:55:50.936Z,11.70
2022-10-18T06:58:53.120Z,11.61
2022-10-18T07:01:55.128Z,11.72
2022-10-18T07:04:57.393Z,11.83
2022-10-18T07:07:59.305Z,12.00
2022-10-18T07:11:01.673Z,12.06
2022-10-18T07:14:04.870Z,12.05
2022-10-18T07:17:07.054Z,12.20
2022-10-18T07:20:09.180Z,12.26
2022-10-18T07:23:14.334Z,12.38
2022-10-18T07:26:17.634Z,12.53
2022-10-18T07:29:25.267Z,12.60
2022-10-18T07:32:27.144Z,12.70
2022-10-18T07:35:29.453Z,12.73
2022-10-18T07:38:31.704Z,12.82
2022-10-18T07:41:34.173Z,12.86
2022-10-18T07:44:36.110Z,12.90
2022-10-18T07:47:38.434Z,12.91
2022-10-18T07:50:40.454Z,13.01
2022-10-18T07:53:42.561Z,13.05
2022-10-18T07:56:44.574Z,13.20
2022-10-18T07:59:48.249Z,13.26
2022-10-18T08:02:55.446Z,13.24
2022-10-18T08:05:57.659Z,13.30
2022-10-18T08:08:59.813Z,13.41
2022-10-18T08:12:01.951Z,13.49
2022-10-18T08:15:04.241Z,13.67
2022-10-18T08:18:06.394Z,13.73
2022-10-18T08:21:10.240Z,13.97
2022-10-18T08:24:12.451Z,13.88
2022-10-18T08:27:14.367Z,13.96
2022-10-18T08:30:16.886Z,14.05
2022-10-18T08:33:18.803Z,14.11
2022-10-18T08:36:21.006Z,14.13
2022-10-18T08:39:22.895Z,14.33
2022-10-18T08:42:27.809Z,14.43
2022-10-18T08:45:41.823Z,14.63
2022-10-18T08:48:47.364Z,14.74
2022-10-18T08:51:50.879Z,14.88
2022-10-18T08:55:02.247Z,15.00
2022-10-18T08:58:12.274Z,15.00
2022-10-18T09:01:29.796Z,14.95
2022-10-18T09:04:34.474Z,14.95
2022-10-18T09:07:53.313Z,15.02
2022-10-18T09:10:55.218Z,15.20
2022-10-18T09:14:14.963Z,15.30
2022-10-18T09:17:19.877Z,15.33
2022-10-18T09:20:26.332Z,15.48
2022-10-18T09:23:54.716Z,15.68
2022-10-18T09:27:22.359Z,15.83
2022-10-18T09:30:29.538Z,15.89
2022-10-18T09:33:31.794Z,16.25
2022-10-18T09:36:36.981Z,16.45
2022-10-18T09:39:39.424Z,16.55
2022-10-18T09:42:47.026Z,16.93
2022-10-18T09:45:50.744Z,17.22
2022-10-18T09:49:02.471Z,17.52
2022-10-18T09:52:07.702Z,17.47
2022-10-18T09:55:15.413Z,17.60
2022-10-18T09:58:18.523Z,17.69
2022-10-18T10:01:28.614Z,17.52
2022-10-18T10:04:34.919Z,17.38
2022-10-18T10:07:42.146Z,17.37
2022-10-18T10:10:46.905Z,17.47
2022-10-18T10:13:48.784Z,17.67
2022-10-18T10:16:59.738Z,18.02
2022-10-18T10:20:05.423Z,18.20
2022-10-18T10:23:22.080Z,18.45
2022-10-18T10:26:34.586Z,18.52
2022-10-18T10:29:47.660Z,18.53
2022-10-18T10:32:50.439Z,18.50
2022-10-18T10:35:58.342Z,18.57
2022-10-18T10:39:13.908Z,18.95
2022-10-18T10:42:16.110Z,19.25
2022-10-18T10:45:19.844Z,19.86
2022-10-18T10:48:22.323Z,20.15
2022-10-18T10:51:37.135Z,21.20
2022-10-18T10:54:40.135Z,22.39
2022-10-18T10:57:44.139Z,23.71
2022-10-18T11:00:46.327Z,25.85
2022-10-18T11:03:49.344Z,27.86
2022-10-18T11:07:04.776Z,29.23
2022-10-18T11:10:15.350Z,30.38
2022-10-18T11:13:18.571Z,31.06
2022-10-18T11:16:33.139Z,30.18
2022-10-18T11:19:44.820Z,30.86
2022-10-18T11:22:49.658Z,31.66
2022-10-18T11:26:06.962Z,31.85
2022-10-18T11:29:27.551Z,31.61
2022-10-18T11:32:38.767Z,31.16
2022-10-18T11:35:43.468Z,32.56
2022-10-18T11:38:51.782Z,32.19
2022-10-18T11:41:53.641Z,31.44
2022-10-18T11:44:58.757Z,31.70
2022-10-18T11:48:06.517Z,32.46
2022-10-18T11:51:26.493Z,32.33
2022-10-18T11:57:51.521Z,31.34
2022-10-18T12:00:56.971Z,31.36
2022-10-18T12:04:03.413Z,31.30
2022-10-18T12:07:06.488Z,31.72
2022-10-18T12:10:09.937Z,31.73
2022-10-18T12:13:32.122Z,31.28
2022-10-18T12:16:50.969Z,30.86
2022-10-18T12:19:56.079Z,31.09
2022-10-18T12:23:01.306Z,30.21
2022-10-18T12:26:05.116Z,29.46
2022-10-18T12:29:26.273Z,28.55
2022-10-18T12:32:32.561Z,26.36
2022-10-18T12:35:39.825Z,24.51
2022-10-18T12:38:44.211Z,23.51
2022-10-18T12:41:47.493Z,23.35
2022-10-18T12:44:50.110Z,23.77
2022-10-18T12:47:52.955Z,24.27
2022-10-18T12:50:58.673Z,23.63
2022-10-18T12:54:00.828Z,23.95
2022-10-18T12:57:04.347Z,25.61
2022-10-18T13:00:06.828Z,26.41
2022-10-18T13:03:08.756Z,27.39
2022-10-18T13:06:11.011Z,25.63
2022-10-18T13:09:18.195Z,27.21
2022-10-18T13:12:20.293Z,27.48
2022-10-18T13:15:34.416Z,26.35
2022-10-18T13:18:46.161Z,26.28
2022-10-18T13:22:14.934Z,25.84
2022-10-18T13:25:35.477Z,27.08
2022-10-18T13:28:40.118Z,26.78
2022-10-18T13:31:52.894Z,27.09
2022-10-18T13:34:54.878Z,26.23
2022-10-18T13:37:58.202Z,26.33
2022-10-18T13:41:01.606Z,26.59
2022-10-18T13:44:22.749Z,25.84
2022-10-18T13:47:38.031Z,25.53
2022-10-18T13:50:41.847Z,25.48
2022-10-18T13:54:02.412Z,25.50
2022-10-18T13:57:25.796Z,25.31
2022-10-18T14:00:36.888Z,25.10
2022-10-18T14:03:57.625Z,24.43
2022-10-18T14:07:03.458Z,24.01
2022-10-18T14:10:09.639Z,23.06
2022-10-18T14:13:18.506Z,22.71
2022-10-18T14:16:29.784Z,22.37
2022-10-18T14:19:42.559Z,21.92
2022-10-18T14:22:57.346Z,21.50
2022-10-18T14:26:06.384Z,21.06
2022-10-18T14:29:16.333Z,20.88
2022-10-18T14:32:28.453Z,20.61
2022-10-18T14:35:32.891Z,20.48
2022-10-18T14:38:36.320Z,20.22
2022-10-18T14:41:47.541Z,20.02
2022-10-18T14:44:53.020Z,19.91
2022-10-18T14:48:08.158Z,19.65
2022-10-18T14:51:11.191Z,19.49
2022-10-18T14:57:19.082Z,18.85
2022-10-18T15:00:36.489Z,18.61
2022-10-18T15:03:38.478Z,18.33
2022-10-18T15:06:44.263Z,18.00
2022-10-18T15:09:46.817Z,17.84
2022-10-18T15:13:08.733Z,17.61
2022-10-18T15:16:16.490Z,17.40
2022-10-18T15:19:39.520Z,17.19
2022-10-18T15:22:41.599Z,17.07
2022-10-18T15:25:43.806Z,16.90
2022-10-18T15:28:52.655Z,16.74
2022-10-18T15:31:55.273Z,16.63
2022-10-18T15:35:16.016Z,16.47
2022-10-18T15:38:21.002Z,16.36
2022-10-18T15:41:39.934Z,16.30
2022-10-18T15:44:49.389Z,16.18
2022-10-18T15:47:57.476Z,16.25
2022-10-18T15:51:02.016Z,16.14
2022-10-18T15:54:03.930Z,15.96
2022-10-18T15:57:10.275Z,15.74
2022-10-18T16:00:17.841Z,15.60
2022-10-18T16:03:22.212Z,15.42
2022-10-18T16:06:24.172Z,15.22
2022-10-18T16:09:27.737Z,15.15
2022-10-18T16:12:29.770Z,15.04
2022-10-18T16:15:31.987Z,14.97
2022-10-18T16:18:33.899Z,14.81
2022-10-18T16:21:37.527Z,14.71
2022-10-18T16:24:39.778Z,14.56
2022-10-18T16:27:42.106Z,14.43
2022-10-18T16:30:46.227Z,14.36
2022-10-18T16:33:48.833Z,14.37
2022-10-18T16:36:50.729Z,14.22
2022-10-18T16:39:52.964Z,14.13
2022-10-18T16:42:54.865Z,14.09
2022-10-18T16:45:57.107Z,14.00
2022-10-18T16:48:59.402Z,14.04
2022-10-18T16:52:01.647Z,14.02
2022-10-18T16:55:03.668Z,14.06
2022-10-18T16:58:06.305Z,14.14
2022-10-18T17:01:10.891Z,14.01
2022-10-18T17:04:13.110Z,13.86
2022-10-18T17:07:23.245Z,13.72
2022-10-18T17:10:26.435Z,13.83
2022-10-18T17:13:28.362Z,13.66
2022-10-18T17:16:32.769Z,13.49
2022-10-18T17:19:34.670Z,13.52
2022-10-18T17:22:36.930Z,13.36
2022-10-18T17:25:47.253Z,13.23
2022-10-18T17:29:01.762Z,13.14
2022-10-18T17:32:03.840Z,13.08
2022-10-18T17:35:06.139Z,12.99
2022-10-18T17:38:08.036Z,12.83
2022-10-18T17:41:10.893Z,12.82
2022-10-18T17:44:12.855Z,12.80
2022-10-18T17:47:15.052Z,12.76
2022-10-18T17:50:17.500Z,12.63
2022-10-18T17:53:22.895Z,12.72
2022-10-18T17:56:27.067Z,12.79
2022-10-18T17:59:29.380Z,12.59
2022-10-18T18:02:31.910Z,12.48
2022-10-18T18:05:34.715Z,12.37
2022-10-18T18:08:36.615Z,12.42
2022-10-18T18:11:40.149Z,12.27
2022-10-18T18:14:42.066Z,12.26
2022-10-18T18:17:56.741Z,12.31
2022-10-18T18:20:59.583Z,12.30
2022-10-18T18:24:02.054Z,12.20
2022-10-18T18:27:04.262Z,12.18
2022-10-18T18:30:06.966Z,12.06
2022-10-18T18:33:10.618Z,11.98
2022-10-18T18:36:13.158Z,11.92
2022-10-18T18:39:20.522Z,12.05
2022-10-18T18:42:22.994Z,12.05
2022-10-18T18:45:24.965Z,12.17
2022-10-18T18:48:27.993Z,11.86
2022-10-18T18:51:29.996Z,11.83
2022-10-18T18:54:32.301Z,11.78
2022-10-18T18:57:34.478Z,11.65
2022-10-18T19:00:41.725Z,11.77
2022-10-18T19:03:47.887Z,11.80
2022-10-18T19:06:50.186Z,11.58
2022-10-18T19:09:52.186Z,11.51
2022-10-18T19:12:54.460Z,11.61
2022-10-18T19:16:15.170Z,11.57
2022-10-18T19:19:18.624Z,11.58
2022-10-18T19:22:20.564Z,11.47
2022-10-18T19:25:24.806Z,11.62
2022-10-18T19:28:28.948Z,11.40
2022-10-18T19:31:31.250Z,11.25
2022-10-18T19:34:53.535Z,11.18
2022-10-18T19:37:55.795Z,11.19
2022-10-18T19:40:57.672Z,11.20
2022-10-18T19:43:59.987Z,11.32
2022-10-18T19:47:03.157Z,11.27
2022-10-18T19:50:05.701Z,11.15
2022-10-18T19:53:07.645Z,11.30
2022-10-18T19:56:16.388Z,11.00
2022-10-18T19:59:18.520Z,10.84
2022-10-18T20:02:20.702Z,10.99
2022-10-18T20:05:22.874Z,10.95
2022-10-18T20:08:25.828Z,10.84
2022-10-18T20:11:28.899Z,10.75
2022-10-18T20:14:30.809Z,10.92
2022-10-18T20:17:32.982Z,10.80
2022-10-18T20:20:35.615Z,10.83
2022-10-18T20:23:38.683Z,10.87
2022-10-18T20:26:40.803Z,10.85
2022-10-18T20:29:43.098Z,10.66
2022-10-18T20:32:45.098Z,10.49
2022-10-18T20:35:51.423Z,10.66
2022-10-18T20:38:54.980Z,10.58
2022-10-18T20:41:57.303Z,10.57
2022-10-18T20:44:59.254Z,10.70
2022-10-18T20:48:01.495Z,10.56
2022-10-18T20:51:07.301Z,10.52
2022-10-18T20:54:10.224Z,10.41
2022-10-18T20:57:12.170Z,10.39
2022-10-18T21:00:14.845Z,10.44
2022-10-18T21:03:16.773Z,10.47
2022-10-18T21:06:20.906Z,10.40
2022-10-18T21:09:22.815Z,10.20
2022-10-18T21:12:27.527Z,10.31
2022-10-18T21:15:32.710Z,10.25
2022-10-18T21:18:36.464Z,10.38
2022-10-18T21:21:38.599Z,10.34
2022-10-18T21:24:42.410Z,10.23
2022-10-18T21:27:45.094Z,10.24
2022-10-18T21:30:47.302Z,10.23
2022-10-18T21:33:52.715Z,10.16
2022-10-18T21:36:54.992Z,10.14
2022-10-18T21:39:56.907Z,9.93
2022-10-18T21:42:59.113Z,9.92
2022-10-18T21:46:01.449Z,9.92
2022-10-18T21:49:03.620Z,10.08
2022-10-18T21:52:06.414Z,9.85
2022-10-18T21:55:08.781Z,9.87
2022-10-18T21:58:10.740Z,9.95
2022-10-18T22:01:14.741Z,10.02
2022-10-18T22:04:21.059Z,9.98
2022-10-18T22:07:22.946Z,9.92
2022-10-18T22:10:25.161Z,10.09
2022-10-18T22:13:27.455Z,10.13
2022-10-18T22:16:29.658Z,10.09
2022-10-18T22:19:31.523Z,10.25
2022-10-18T22:22:33.792Z,10.40
2022-10-18T22:25:36.262Z,10.45
2022-10-18T22:28:39.456Z,10.48
2022-10-18T22:31:43.277Z,10.42
2022-10-18T22:34:45.548Z,10.53
2022-10-18T22:37:47.446Z,10.73
2022-10-18T22:40:49.654Z,10.65
2022-10-18T22:43:52.709Z,10.67
2022-10-18T22:46:54.963Z,10.67
2022-10-18T22:49:56.911Z,10.62
2022-10-18T22:52:59.119Z,10.53
2022-10-18T22:56:01.044Z,10.76
2022-10-18T22:59:03.291Z,10.81
2022-10-18T23:02:05.256Z,10.82
2022-10-18T23:05:07.497Z,10.72
2022-10-18T23:08:10.204Z,10.67
2022-10-18T23:11:12.457Z,10.62
2022-10-18T23:14:14.381Z,10.78
2022-10-18T23:17:16.684Z,10.78
2022-10-18T23:20:18.603Z,10.84
2022-10-18T23:23:20.824Z,10.78
2022-10-18T23:26:24.418Z,10.86
2022-10-18T23:29:26.669Z,11.00
2022-10-18T23:32:28.576Z,10.92
2022-10-18T23:35:30.889Z,11.04
2022-10-18T23:38:32.922Z,10.89
2022-10-18T23:41:35.215Z,10.70
2022-10-18T23:44:37.132Z,10.71
2022-10-18T23:47:39.389Z,10.69
2022-10-18T23:50:42.689Z,10.55
2022-10-18T23:53:45.211Z,10.66
2022-10-18T23:56:47.102Z,10.65
2022-10-18T23:59:49.360Z,10.54
